X  Κλείσε Στοιχεία αεροπορικών μετεωρολογικών δεδομένων METAR     LYNI Nis Airport
θερμοκρασία
30°C θερμοκρασία
16°C Σημείο δρόσου
43% Υγρασία



Ανεμος
6 MPH
10 KM/H
3 M/S
5 KTS



320°
VD
Τρέχουσες συνθήκες

Σαφή Σαφή
πίεση 1010.84 (hPa) - 29.85 (inHg)
Ορατότητα 6 (μίλι) - 9.7 (km)
Aεροδρόμιο
Κωδικός αεροδρομίου LYNI

Τοποθεσία: Nis Airport
Απόσταση: 63 (mi)

Metar:
LYNI 161600Z 32005KT 260V010 CAVOK 30/16 Q1011 NOSIG

ώρα: 16-06-2024 18:00 CEST